createdAt,value
2018-01-01T00:00:38.625Z,12.54
2018-01-01T00:01:38.545Z,12.67
2018-01-01T00:02:38.457Z,12.39
2018-01-01T00:03:38.367Z,12.19
2018-01-01T00:04:38.292Z,12.27
2018-01-01T00:05:38.202Z,12.26
2018-01-01T00:06:38.114Z,12.31
2018-01-01T00:07:38.026Z,12.49
2018-01-01T00:08:37.942Z,12.57
2018-01-01T00:09:37.855Z,12.66
2018-01-01T00:10:37.765Z,12.39
2018-01-01T00:11:37.684Z,12.52
2018-01-01T00:12:37.598Z,12.66
2018-01-01T00:13:37.506Z,12.66
2018-01-01T00:14:37.426Z,12.26
2018-01-01T00:15:37.343Z,12.39
2018-01-01T00:16:37.253Z,12.26
2018-01-01T00:17:37.164Z,12.48
2018-01-01T00:18:37.081Z,12.11
2018-01-01T00:19:36.993Z,12.30
2018-01-01T00:20:36.909Z,12.12
2018-01-01T00:21:36.829Z,12.30
2018-01-01T00:22:36.736Z,12.59
2018-01-01T00:23:36.654Z,12.39
2018-01-01T00:24:36.567Z,12.27
2018-01-01T00:25:36.475Z,12.42
2018-01-01T00:26:36.395Z,12.44
2018-01-01T00:27:36.308Z,12.30
2018-01-01T00:28:36.218Z,12.48
2018-01-01T00:29:36.151Z,12.45
2018-01-01T00:30:36.058Z,12.57
2018-01-01T00:31:35.972Z,12.38
2018-01-01T00:32:35.880Z,12.13
2018-01-01T00:33:35.827Z,12.20
2018-01-01T00:34:35.703Z,12.16
2018-01-01T00:35:35.616Z,12.20
2018-01-01T00:36:35.531Z,12.41
2018-01-01T00:37:35.456Z,12.44
2018-01-01T00:38:35.363Z,12.46
2018-01-01T00:39:35.276Z,12.30
2018-01-01T00:40:35.190Z,12.46
2018-01-01T00:41:35.101Z,12.44
2018-01-01T00:42:35.014Z,12.31
2018-01-01T00:43:34.930Z,12.38
2018-01-01T00:44:34.844Z,12.38
2018-01-01T00:45:34.758Z,12.52
2018-01-01T00:46:34.674Z,12.45
2018-01-01T00:47:34.582Z,12.11
2018-01-01T00:48:34.497Z,12.27
2018-01-01T00:49:34.414Z,12.31
2018-01-01T00:50:34.325Z,12.29
2018-01-01T00:51:34.237Z,12.31
2018-01-01T00:52:34.154Z,12.09
2018-01-01T00:53:34.076Z,12.20
2018-01-01T00:54:33.981Z,12.15
2018-01-01T00:55:33.893Z,12.08
2018-01-01T00:56:33.812Z,12.13
2018-01-01T00:57:33.719Z,12.20
2018-01-01T00:58:33.646Z,12.06
2018-01-01T00:59:33.553Z,12.31
2018-01-01T01:00:33.461Z,12.21
2018-01-01T01:01:33.376Z,12.15
2018-01-01T01:02:33.288Z,12.16
2018-01-01T01:03:33.204Z,12.01
2018-01-01T01:04:33.120Z,11.96
2018-01-01T01:05:33.038Z,12.05
2018-01-01T01:06:32.947Z,12.12
2018-01-01T01:07:32.861Z,12.13
2018-01-01T01:08:32.773Z,12.11
2018-01-01T01:09:32.688Z,12.06
2018-01-01T01:10:32.607Z,12.11
2018-01-01T01:11:32.517Z,12.23
2018-01-01T01:12:32.431Z,12.31
2018-01-01T01:13:32.339Z,12.09
2018-01-01T01:14:32.261Z,12.06
2018-01-01T01:15:32.167Z,12.04
2018-01-01T01:16:32.092Z,12.11
2018-01-01T01:17:32.003Z,12.19
2018-01-01T01:18:31.910Z,12.13
2018-01-01T01:19:31.822Z,12.15
2018-01-01T01:20:31.737Z,12.19
2018-01-01T01:21:31.673Z,12.33
2018-01-01T01:22:31.564Z,12.31
2018-01-01T01:23:31.491Z,12.08
2018-01-01T01:24:31.392Z,12.26
2018-01-01T01:25:31.305Z,12.12
2018-01-01T01:26:31.220Z,12.16
2018-01-01T01:27:31.134Z,12.20
2018-01-01T01:28:31.052Z,12.09
2018-01-01T01:29:30.958Z,12.01
2018-01-01T01:30:30.875Z,12.15
2018-01-01T01:31:30.791Z,12.12
2018-01-01T01:32:30.703Z,12.12
2018-01-01T01:33:30.615Z,12.11
2018-01-01T01:34:30.525Z,12.11
2018-01-01T01:35:30.454Z,11.94
2018-01-01T01:36:30.358Z,11.97
2018-01-01T01:37:30.270Z,12.12
2018-01-01T01:38:30.180Z,11.96
2018-01-01T01:39:30.100Z,11.82
2018-01-01T01:40:30.011Z,11.77
2018-01-01T01:41:29.922Z,12.01
2018-01-01T01:42:29.845Z,12.06
2018-01-01T01:43:29.754Z,12.05
2018-01-01T01:44:29.664Z,11.82
2018-01-01T01:45:29.575Z,11.99
2018-01-01T01:46:29.495Z,12.05
2018-01-01T01:47:29.403Z,12.05
2018-01-01T01:48:29.322Z,12.19
2018-01-01T01:49:29.233Z,12.20
2018-01-01T01:50:29.146Z,11.99
2018-01-01T01:51:29.061Z,12.12
2018-01-01T01:52:28.984Z,12.01
2018-01-01T01:53:28.901Z,12.06
2018-01-01T01:54:28.803Z,12.09
2018-01-01T01:55:28.718Z,12.09
2018-01-01T01:56:28.625Z,12.08
2018-01-01T01:57:28.546Z,12.06
2018-01-01T01:58:28.455Z,12.04
2018-01-01T01:59:28.375Z,12.06
2018-01-01T02:00:28.286Z,11.85
2018-01-01T02:01:28.202Z,11.93
2018-01-01T02:02:28.109Z,12.09
2018-01-01T02:03:28.025Z,11.78
2018-01-01T02:04:27.941Z,11.87
2018-01-01T02:05:27.853Z,11.85
2018-01-01T02:06:27.766Z,11.99
2018-01-01T02:07:27.680Z,11.74
2018-01-01T02:08:27.597Z,11.75
2018-01-01T02:09:27.515Z,11.83
2018-01-01T02:10:27.415Z,11.71
2018-01-01T02:11:27.330Z,11.70
2018-01-01T02:12:27.245Z,11.74
2018-01-01T02:13:27.154Z,11.82
2018-01-01T02:14:27.072Z,11.77
2018-01-01T02:15:26.983Z,11.72
2018-01-01T02:16:26.899Z,11.71
2018-01-01T02:17:26.811Z,11.75
2018-01-01T02:18:26.726Z,11.85
2018-01-01T02:19:26.635Z,11.87
2018-01-01T02:20:26.549Z,11.65
2018-01-01T02:21:26.460Z,11.64
2018-01-01T02:22:26.374Z,11.70
2018-01-01T02:23:26.300Z,11.74
2018-01-01T02:24:26.204Z,11.82
2018-01-01T02:25:26.117Z,11.83
2018-01-01T02:26:26.025Z,11.70
2018-01-01T02:27:25.940Z,11.61
2018-01-01T02:28:25.862Z,11.68
2018-01-01T02:29:25.764Z,11.71
2018-01-01T02:30:25.684Z,11.72
2018-01-01T02:31:25.591Z,11.72
2018-01-01T02:32:25.511Z,11.71
2018-01-01T02:33:25.418Z,11.72
2018-01-01T02:34:25.329Z,11.67
2018-01-01T02:35:25.254Z,11.61
2018-01-01T02:36:25.165Z,11.74
2018-01-01T02:37:25.075Z,11.53
2018-01-01T02:38:24.987Z,11.71
2018-01-01T02:39:24.902Z,11.75
2018-01-01T02:40:24.823Z,11.72
2018-01-01T02:41:24.732Z,11.70
2018-01-01T02:42:24.639Z,11.74
2018-01-01T02:43:24.560Z,11.64
2018-01-01T02:44:24.472Z,11.57
2018-01-01T02:45:24.390Z,11.62
2018-01-01T02:46:24.295Z,11.53
2018-01-01T02:47:24.215Z,11.68
2018-01-01T02:48:24.134Z,11.68
2018-01-01T02:49:24.041Z,11.47
2018-01-01T02:50:23.948Z,11.28
2018-01-01T02:51:23.866Z,11.41
2018-01-01T02:52:23.776Z,11.16
2018-01-01T02:53:23.741Z,11.10
2018-01-01T02:54:23.602Z,11.29
2018-01-01T02:55:23.512Z,11.41
2018-01-01T02:56:23.428Z,11.47
2018-01-01T02:57:23.337Z,11.56
2018-01-01T02:58:23.255Z,11.67
2018-01-01T02:59:23.171Z,11.68
2018-01-01T03:00:23.077Z,11.53
2018-01-01T03:01:22.994Z,11.65
2018-01-01T03:02:22.907Z,11.56
2018-01-01T03:03:22.824Z,11.68
2018-01-01T03:04:22.736Z,11.64
2018-01-01T03:05:22.651Z,11.52
2018-01-01T03:06:22.563Z,11.61
2018-01-01T03:07:22.478Z,11.67
2018-01-01T03:08:22.405Z,11.78
2018-01-01T03:09:22.307Z,11.77
2018-01-01T03:10:22.280Z,11.74
2018-01-01T03:11:22.141Z,11.80
2018-01-01T03:12:22.050Z,11.56
2018-01-01T03:13:21.967Z,11.70
2018-01-01T03:14:21.881Z,11.71
2018-01-01T03:15:21.807Z,11.68
2018-01-01T03:16:21.714Z,11.71
2018-01-01T03:17:21.631Z,11.56
2018-01-01T03:18:21.547Z,11.57
2018-01-01T03:19:21.460Z,11.50
2018-01-01T03:20:21.370Z,11.56
2018-01-01T03:21:21.288Z,11.74
2018-01-01T03:22:21.197Z,11.62
2018-01-01T03:23:21.125Z,11.64
2018-01-01T03:24:21.025Z,11.72
2018-01-01T03:25:20.949Z,11.57
2018-01-01T03:26:20.858Z,11.54
2018-01-01T03:27:20.773Z,11.68
2018-01-01T03:28:20.687Z,11.64
2018-01-01T03:29:20.606Z,11.47
2018-01-01T03:30:20.517Z,11.44
2018-01-01T03:31:20.432Z,11.46
2018-01-01T03:32:20.359Z,11.41
2018-01-01T03:33:20.260Z,11.39
2018-01-01T03:34:20.190Z,11.32
2018-01-01T03:35:20.103Z,11.43
2018-01-01T03:36:20.001Z,11.34
2018-01-01T03:37:19.913Z,11.38
2018-01-01T03:38:19.830Z,11.21
2018-01-01T03:39:19.744Z,11.31
2018-01-01T03:40:19.657Z,11.28
2018-01-01T03:41:19.564Z,11.28
2018-01-01T03:42:19.487Z,11.29
2018-01-01T03:43:19.430Z,11.34
2018-01-01T03:44:19.323Z,11.28
2018-01-01T03:45:19.220Z,11.21
2018-01-01T03:46:19.124Z,11.20
2018-01-01T03:47:19.044Z,11.27
2018-01-01T03:48:18.960Z,11.25
2018-01-01T03:49:18.867Z,11.27
2018-01-01T03:50:18.784Z,11.34
2018-01-01T03:51:18.692Z,11.34
2018-01-01T03:52:18.604Z,11.32
2018-01-01T03:53:18.520Z,11.36
2018-01-01T03:54:18.432Z,11.36
2018-01-01T03:55:18.346Z,11.25
2018-01-01T03:56:18.255Z,11.39
2018-01-01T03:57:18.168Z,11.41
2018-01-01T03:58:18.080Z,11.29
2018-01-01T03:59:17.990Z,11.25
2018-01-01T04:00:17.902Z,11.24
2018-01-01T04:01:17.830Z,11.25
2018-01-01T04:02:17.741Z,11.16
2018-01-01T04:03:17.643Z,11.20
2018-01-01T04:04:17.557Z,11.16
2018-01-01T04:05:17.471Z,11.27
2018-01-01T04:06:17.381Z,11.19
2018-01-01T04:07:17.296Z,11.19
2018-01-01T04:08:17.223Z,11.20
2018-01-01T04:09:17.119Z,11.09
2018-01-01T04:10:17.037Z,11.10
2018-01-01T04:11:16.950Z,11.10
2018-01-01T04:12:16.865Z,11.27
2018-01-01T04:13:16.771Z,11.17
2018-01-01T04:14:16.686Z,11.27
2018-01-01T04:15:16.598Z,11.16
2018-01-01T04:16:16.512Z,11.24
2018-01-01T04:17:16.422Z,11.21
2018-01-01T04:18:16.338Z,11.31
2018-01-01T04:19:16.295Z,11.29
2018-01-01T04:20:16.157Z,11.16
2018-01-01T04:21:16.075Z,11.17
2018-01-01T04:22:15.999Z,11.16
2018-01-01T04:23:15.900Z,11.21
2018-01-01T04:24:15.813Z,11.25
2018-01-01T04:25:15.744Z,11.16
2018-01-01T04:26:15.668Z,11.03
2018-01-01T04:27:15.548Z,11.13
2018-01-01T04:28:15.461Z,11.02
2018-01-01T04:29:15.372Z,11.11
2018-01-01T04:30:15.287Z,10.95
2018-01-01T04:31:15.198Z,10.89
2018-01-01T04:32:15.111Z,10.94
2018-01-01T04:33:15.021Z,10.96
2018-01-01T04:34:14.933Z,11.10
2018-01-01T04:35:14.854Z,11.06
2018-01-01T04:36:14.773Z,11.02
2018-01-01T04:37:14.672Z,11.03
2018-01-01T04:38:14.611Z,10.96
2018-01-01T04:39:14.492Z,10.74
2018-01-01T04:40:14.411Z,10.88
2018-01-01T04:41:14.320Z,10.95
2018-01-01T04:42:14.237Z,10.94
2018-01-01T04:43:14.147Z,10.95
2018-01-01T04:44:14.069Z,10.95
2018-01-01T04:45:13.975Z,10.84
2018-01-01T04:46:13.882Z,10.83
2018-01-01T04:47:13.800Z,10.98
2018-01-01T04:48:13.866Z,11.03
2018-01-01T04:49:13.621Z,10.96
2018-01-01T04:50:13.534Z,10.91
2018-01-01T04:51:13.446Z,10.86
2018-01-01T04:52:13.359Z,10.89
2018-01-01T04:53:13.271Z,10.83
2018-01-01T04:54:13.189Z,10.99
2018-01-01T04:55:13.093Z,10.95
2018-01-01T04:56:13.004Z,10.83
2018-01-01T04:57:12.925Z,10.92
2018-01-01T04:58:12.829Z,10.83
2018-01-01T04:59:12.745Z,10.77
2018-01-01T05:00:12.664Z,10.96
2018-01-01T05:01:12.570Z,10.83
2018-01-01T05:02:12.499Z,10.86
2018-01-01T05:03:12.395Z,10.76
2018-01-01T05:04:12.309Z,10.74
2018-01-01T05:05:12.216Z,10.88
2018-01-01T05:06:12.131Z,10.81
2018-01-01T05:07:12.062Z,10.92
2018-01-01T05:08:11.963Z,10.99
2018-01-01T05:09:11.864Z,10.77
2018-01-01T05:10:11.782Z,10.89
2018-01-01T05:11:11.719Z,10.96
2018-01-01T05:12:11.866Z,10.96
2018-01-01T05:13:11.522Z,10.92
2018-01-01T05:14:11.464Z,11.01
2018-01-01T05:15:11.353Z,11.01
2018-01-01T05:16:11.257Z,10.96
2018-01-01T05:17:11.172Z,10.89
2018-01-01T05:18:11.083Z,10.77
2018-01-01T05:19:10.993Z,10.80
2018-01-01T05:20:10.913Z,10.81
2018-01-01T05:21:10.826Z,10.83
2018-01-01T05:22:10.735Z,10.88
2018-01-01T05:23:10.648Z,10.77
2018-01-01T05:24:10.556Z,10.70
2018-01-01T05:25:10.473Z,10.74
2018-01-01T05:26:10.429Z,10.76
2018-01-01T05:27:10.312Z,10.76
2018-01-01T05:28:10.215Z,10.58
2018-01-01T05:29:10.122Z,10.62
2018-01-01T05:30:10.037Z,10.70
2018-01-01T05:31:09.949Z,10.55
2018-01-01T05:32:09.861Z,10.77
2018-01-01T05:33:09.776Z,10.66
2018-01-01T05:34:09.687Z,10.56
2018-01-01T05:35:09.598Z,10.44
2018-01-01T05:36:09.514Z,10.58
2018-01-01T05:37:09.432Z,10.63
2018-01-01T05:38:09.347Z,10.51
2018-01-01T05:39:09.251Z,10.53
2018-01-01T05:40:09.174Z,10.52
2018-01-01T05:41:09.067Z,10.47
2018-01-01T05:42:08.988Z,10.52
2018-01-01T05:43:08.907Z,10.51
2018-01-01T05:44:08.809Z,10.46
2018-01-01T05:45:08.716Z,10.52
2018-01-01T05:46:08.632Z,10.32
2018-01-01T05:47:08.541Z,10.22
2018-01-01T05:48:08.455Z,10.34
2018-01-01T05:49:08.363Z,10.44
2018-01-01T05:50:08.283Z,10.22
2018-01-01T05:51:08.191Z,10.32
2018-01-01T05:52:08.111Z,10.18
2018-01-01T05:53:08.018Z,10.17
2018-01-01T05:54:07.931Z,10.15
2018-01-01T05:55:07.841Z,10.12
2018-01-01T05:56:07.750Z,10.14
2018-01-01T05:57:07.659Z,10.12
2018-01-01T05:58:07.578Z,10.09
2018-01-01T05:59:07.486Z,10.19
2018-01-01T06:00:07.399Z,10.18
2018-01-01T06:01:07.306Z,10.15
2018-01-01T06:02:07.263Z,10.17
2018-01-01T06:03:07.134Z,10.10
2018-01-01T06:04:07.045Z,10.19
2018-01-01T06:05:06.961Z,10.09
2018-01-01T06:06:06.873Z,10.19
2018-01-01T06:07:06.810Z,10.22
2018-01-01T06:08:06.696Z,10.15
2018-01-01T06:09:06.607Z,10.33
2018-01-01T06:10:06.519Z,10.26
2018-01-01T06:11:06.466Z,10.17
2018-01-01T06:12:06.347Z,10.12
2018-01-01T06:13:06.257Z,10.07
2018-01-01T06:14:06.170Z,10.19
2018-01-01T06:15:06.079Z,10.19
2018-01-01T06:16:05.992Z,10.15
2018-01-01T06:17:05.906Z,10.22
2018-01-01T06:18:05.821Z,10.03
2018-01-01T06:19:05.730Z,10.12
2018-01-01T06:20:05.640Z,10.09
2018-01-01T06:21:05.561Z,10.12
2018-01-01T06:22:05.468Z,10.17
2018-01-01T06:23:05.375Z,10.21
2018-01-01T06:24:05.327Z,10.12
2018-01-01T06:25:05.203Z,10.09
2018-01-01T06:26:05.120Z,10.10
2018-01-01T06:27:05.034Z,10.10
2018-01-01T06:28:04.941Z,10.14
2018-01-01T06:29:04.850Z,10.15
2018-01-01T06:30:04.768Z,10.12
2018-01-01T06:31:04.690Z,10.14
2018-01-01T06:32:04.587Z,10.15
2018-01-01T06:33:04.503Z,10.09
2018-01-01T06:34:04.417Z,10.03
2018-01-01T06:35:04.327Z,10.04
2018-01-01T06:36:04.236Z,10.12
2018-01-01T06:37:04.152Z,10.09
2018-01-01T06:38:04.058Z,10.14
2018-01-01T06:39:04.001Z,9.96
2018-01-01T06:40:03.891Z,9.86
2018-01-01T06:41:03.816Z,9.89
2018-01-01T06:42:03.707Z,9.85
2018-01-01T06:43:03.650Z,9.86
2018-01-01T06:44:03.710Z,9.82
2018-01-01T06:45:03.445Z,9.91
2018-01-01T06:46:03.356Z,9.85
2018-01-01T06:47:03.268Z,9.85
2018-01-01T06:48:03.183Z,9.88
2018-01-01T06:49:03.104Z,9.93
2018-01-01T06:50:03.001Z,9.88
2018-01-01T06:51:02.913Z,9.86
2018-01-01T06:52:02.827Z,9.93
2018-01-01T06:53:02.739Z,9.81
2018-01-01T06:54:02.651Z,9.83
2018-01-01T06:55:02.578Z,9.93
2018-01-01T06:56:02.478Z,9.89
2018-01-01T06:57:02.396Z,9.75
2018-01-01T06:58:02.301Z,9.71
2018-01-01T06:59:02.362Z,9.79
2018-01-01T07:00:02.129Z,9.73
2018-01-01T07:01:02.040Z,9.76
2018-01-01T07:02:01.947Z,9.75
2018-01-01T07:03:01.859Z,9.93
2018-01-01T07:04:01.766Z,9.99
2018-01-01T07:05:01.679Z,10.00
2018-01-01T07:06:01.592Z,9.93
2018-01-01T07:07:01.503Z,9.88
2018-01-01T07:08:01.424Z,9.83
2018-01-01T07:09:01.337Z,9.75
2018-01-01T07:10:01.237Z,9.66
2018-01-01T07:11:01.150Z,9.75
2018-01-01T07:12:01.081Z,9.73
2018-01-01T07:13:00.970Z,9.63
2018-01-01T07:14:00.899Z,9.58
2018-01-01T07:15:00.800Z,9.60
2018-01-01T07:16:00.710Z,9.58
2018-01-01T07:17:00.618Z,9.58
2018-01-01T07:18:00.536Z,9.67
2018-01-01T07:19:00.443Z,9.58
2018-01-01T07:20:00.354Z,9.64
2018-01-01T07:21:00.266Z,9.68
2018-01-01T07:22:00.194Z,9.73
2018-01-01T07:23:00.094Z,9.75
2018-01-01T07:24:00.007Z,9.75
2018-01-01T07:24:59.914Z,9.52
2018-01-01T07:25:59.823Z,9.58
2018-01-01T07:26:59.740Z,9.43
2018-01-01T07:27:59.651Z,9.48
2018-01-01T07:28:59.561Z,9.50
2018-01-01T07:29:59.472Z,9.48
2018-01-01T07:30:59.383Z,9.49
2018-01-01T07:31:59.293Z,9.48
2018-01-01T07:32:59.203Z,9.53
2018-01-01T07:33:59.139Z,9.50
2018-01-01T07:34:59.053Z,9.49
2018-01-01T07:35:58.944Z,9.66
2018-01-01T07:36:58.860Z,9.45
2018-01-01T07:37:58.764Z,9.46
2018-01-01T07:38:58.675Z,9.32
2018-01-01T07:39:58.625Z,9.42
2018-01-01T07:40:58.502Z,9.42
2018-01-01T07:41:58.432Z,9.48
2018-01-01T07:42:58.326Z,9.49
2018-01-01T07:43:58.241Z,9.49
2018-01-01T07:44:58.145Z,9.48
2018-01-01T07:45:58.059Z,9.52
2018-01-01T07:46:57.993Z,9.46
2018-01-01T07:47:57.877Z,9.43
2018-01-01T07:48:57.793Z,9.43
2018-01-01T07:49:57.713Z,9.50
2018-01-01T07:50:57.618Z,9.43
2018-01-01T07:51:57.530Z,9.48
2018-01-01T07:52:57.433Z,9.50
2018-01-01T07:53:57.348Z,9.38
2018-01-01T07:54:57.260Z,9.49
2018-01-01T07:55:57.166Z,9.43
2018-01-01T07:56:57.103Z,9.43
2018-01-01T07:57:56.995Z,9.52
2018-01-01T07:58:56.902Z,9.52
2018-01-01T07:59:56.815Z,9.38
2018-01-01T08:00:56.721Z,9.40
2018-01-01T08:01:56.635Z,9.35
2018-01-01T08:02:56.549Z,9.53
2018-01-01T08:03:56.466Z,9.43
2018-01-01T08:04:56.371Z,9.43
2018-01-01T08:05:56.281Z,9.49
2018-01-01T08:06:56.193Z,9.48
2018-01-01T08:07:56.105Z,9.52
2018-01-01T08:08:56.016Z,9.52
2018-01-01T08:09:55.924Z,9.50
2018-01-01T08:10:55.842Z,9.68
2018-01-01T08:11:55.756Z,9.75
2018-01-01T08:12:55.673Z,9.78
2018-01-01T08:13:55.575Z,9.70
2018-01-01T08:14:55.498Z,9.88
2018-01-01T08:15:55.397Z,9.89
2018-01-01T08:16:55.322Z,10.18
2018-01-01T08:17:55.225Z,10.14
2018-01-01T08:18:55.135Z,10.33
2018-01-01T08:19:55.055Z,10.65
2018-01-01T08:20:54.963Z,10.81
2018-01-01T08:21:54.874Z,11.06
2018-01-01T08:22:54.780Z,11.28
2018-01-01T08:23:54.708Z,11.57
2018-01-01T08:24:54.614Z,11.75
2018-01-01T08:25:54.525Z,12.15
2018-01-01T08:26:54.458Z,12.37
2018-01-01T08:27:54.355Z,12.63
2018-01-01T08:28:54.274Z,12.67
2018-01-01T08:29:54.192Z,13.03
2018-01-01T08:30:54.107Z,13.29
2018-01-01T08:31:54.018Z,13.70
2018-01-01T08:32:53.931Z,13.77
2018-01-01T08:33:53.848Z,13.58
2018-01-01T08:34:53.768Z,13.47
2018-01-01T08:35:53.688Z,13.74
2018-01-01T08:36:53.628Z,13.83
2018-01-01T08:37:53.527Z,13.89
2018-01-01T08:38:53.432Z,14.10
2018-01-01T08:39:53.352Z,14.28
2018-01-01T08:40:53.268Z,14.32
2018-01-01T08:41:53.182Z,14.53
2018-01-01T08:42:53.102Z,14.39
2018-01-01T08:43:53.025Z,14.61
2018-01-01T08:44:52.943Z,14.90
2018-01-01T08:45:52.855Z,15.06
2018-01-01T08:46:52.767Z,14.95
2018-01-01T08:47:52.690Z,15.13
2018-01-01T08:48:52.607Z,14.98
2018-01-01T08:49:52.525Z,14.50
2018-01-01T08:50:52.449Z,13.37
2018-01-01T08:51:52.364Z,12.96
2018-01-01T08:52:52.278Z,12.70
2018-01-01T08:53:52.195Z,12.67
2018-01-01T08:54:52.107Z,12.45
2018-01-01T08:55:52.028Z,12.42
2018-01-01T08:56:51.943Z,12.26
2018-01-01T08:57:51.854Z,11.82
2018-01-01T08:58:51.769Z,11.65
2018-01-01T08:59:51.691Z,11.34
2018-01-01T09:00:51.599Z,11.41
2018-01-01T09:01:51.519Z,11.52
2018-01-01T09:02:51.431Z,11.47
2018-01-01T09:03:51.343Z,11.46
2018-01-01T09:04:51.262Z,11.03
2018-01-01T09:05:51.175Z,11.01
2018-01-01T09:06:51.085Z,11.02
2018-01-01T09:07:50.997Z,11.01
2018-01-01T09:08:50.910Z,10.95
2018-01-01T09:09:50.828Z,10.88
2018-01-01T09:10:50.741Z,10.70
2018-01-01T09:11:50.662Z,11.01
2018-01-01T09:12:50.571Z,11.75
2018-01-01T09:13:50.478Z,12.29
2018-01-01T09:14:50.398Z,12.52
2018-01-01T09:15:50.306Z,11.89
2018-01-01T09:16:50.220Z,11.65
2018-01-01T09:17:50.140Z,11.28
2018-01-01T09:18:50.047Z,11.99
2018-01-01T09:19:49.968Z,12.52
2018-01-01T09:20:49.873Z,12.81
2018-01-01T09:21:49.791Z,13.37
2018-01-01T09:22:49.705Z,14.04
2018-01-01T09:23:49.620Z,14.34
2018-01-01T09:24:49.539Z,14.02
2018-01-01T09:25:49.452Z,14.25
2018-01-01T09:26:49.367Z,13.84
2018-01-01T09:27:49.289Z,13.20
2018-01-01T09:28:49.200Z,12.74
2018-01-01T09:29:49.117Z,12.75
2018-01-01T09:30:49.039Z,12.88
2018-01-01T09:31:48.946Z,13.02
2018-01-01T09:32:48.866Z,12.82
2018-01-01T09:33:48.778Z,12.12
2018-01-01T09:34:48.697Z,12.27
2018-01-01T09:35:48.604Z,12.30
2018-01-01T09:36:48.526Z,12.19
2018-01-01T09:37:48.448Z,11.87
2018-01-01T09:38:48.364Z,11.89
2018-01-01T09:39:48.267Z,11.68
2018-01-01T09:40:48.187Z,11.52
2018-01-01T09:41:48.095Z,11.39
2018-01-01T09:42:48.014Z,11.36
2018-01-01T09:43:47.926Z,11.46
2018-01-01T09:44:47.872Z,11.72
2018-01-01T09:45:47.746Z,11.56
2018-01-01T09:46:47.669Z,11.72
2018-01-01T09:47:47.578Z,11.47
2018-01-01T09:48:47.534Z,11.72
2018-01-01T09:49:47.411Z,11.86
2018-01-01T09:50:47.334Z,12.79
2018-01-01T09:51:47.234Z,13.27
2018-01-01T09:52:47.174Z,13.80
2018-01-01T09:53:47.061Z,14.43
2018-01-01T09:54:46.982Z,14.50
2018-01-01T09:55:46.900Z,14.74
2018-01-01T09:56:46.816Z,13.81
2018-01-01T09:57:46.726Z,13.32
2018-01-01T09:58:46.642Z,13.65
2018-01-01T09:59:46.557Z,13.18
2018-01-01T10:00:46.475Z,13.46
2018-01-01T10:01:46.393Z,13.94
2018-01-01T10:02:46.310Z,13.44
2018-01-01T10:03:46.219Z,13.20
2018-01-01T10:04:46.144Z,12.67
2018-01-01T10:05:46.168Z,12.88
2018-01-01T10:06:45.964Z,13.15
2018-01-01T10:07:45.881Z,13.15
2018-01-01T10:08:45.801Z,13.27
2018-01-01T10:09:45.720Z,13.21
2018-01-01T10:10:45.629Z,13.21
2018-01-01T10:11:45.543Z,13.79
2018-01-01T10:12:45.459Z,14.25
2018-01-01T10:13:45.376Z,14.27
2018-01-01T10:14:45.289Z,14.52
2018-01-01T10:15:45.206Z,14.12
2018-01-01T10:16:45.127Z,14.37
2018-01-01T10:17:45.038Z,14.25
2018-01-01T10:18:44.961Z,14.09
2018-01-01T10:19:44.871Z,14.06
2018-01-01T10:20:44.806Z,13.91
2018-01-01T10:21:44.730Z,13.83
2018-01-01T10:22:44.629Z,13.77
2018-01-01T10:23:44.562Z,13.96
2018-01-01T10:24:44.460Z,13.92
2018-01-01T10:25:44.370Z,14.31
2018-01-01T10:26:44.294Z,14.38
2018-01-01T10:27:44.207Z,15.08
2018-01-01T10:28:44.120Z,15.27
2018-01-01T10:29:44.042Z,15.54
2018-01-01T10:30:43.958Z,15.75
2018-01-01T10:31:43.872Z,15.51
2018-01-01T10:32:43.795Z,15.84
2018-01-01T10:33:43.715Z,15.60
2018-01-01T10:34:43.631Z,16.01
2018-01-01T10:35:43.553Z,15.57
2018-01-01T10:36:43.474Z,16.16
2018-01-01T10:37:43.401Z,16.62
2018-01-01T10:38:43.302Z,16.49
2018-01-01T10:39:43.255Z,15.54
2018-01-01T10:40:43.145Z,15.61
2018-01-01T10:41:43.063Z,15.96
2018-01-01T10:42:42.996Z,16.00
2018-01-01T10:43:42.898Z,15.41
2018-01-01T10:44:42.818Z,15.36
2018-01-01T10:45:42.736Z,15.59
2018-01-01T10:46:42.650Z,15.61
2018-01-01T10:47:42.577Z,15.68
2018-01-01T10:48:42.487Z,15.81
2018-01-01T10:49:42.405Z,15.38
2018-01-01T10:50:42.329Z,15.67
2018-01-01T10:51:42.251Z,15.52
2018-01-01T10:52:42.206Z,15.99
2018-01-01T10:53:42.084Z,16.34
2018-01-01T10:54:42.009Z,16.73
2018-01-01T10:55:41.922Z,16.70
2018-01-01T10:56:41.845Z,16.42
2018-01-01T10:57:41.764Z,16.67
2018-01-01T10:58:41.680Z,16.34
2018-01-01T10:59:41.602Z,16.41
2018-01-01T11:00:41.521Z,16.26
2018-01-01T11:01:41.437Z,16.52
2018-01-01T11:02:41.357Z,16.20
2018-01-01T11:03:41.284Z,16.01
2018-01-01T11:04:41.209Z,15.26
2018-01-01T11:05:41.120Z,14.67
2018-01-01T11:06:41.038Z,14.81
2018-01-01T11:07:40.955Z,15.20
2018-01-01T11:08:40.906Z,14.94
2018-01-01T11:09:40.786Z,14.21
2018-01-01T11:10:40.719Z,14.19
2018-01-01T11:11:40.632Z,14.02
2018-01-01T11:12:40.545Z,13.80
2018-01-01T11:13:40.457Z,14.14
2018-01-01T11:14:40.374Z,13.70
2018-01-01T11:15:40.380Z,13.69
2018-01-01T11:16:40.233Z,13.49
2018-01-01T11:17:40.146Z,13.76
2018-01-01T11:18:40.042Z,13.79
2018-01-01T11:19:39.958Z,14.04
2018-01-01T11:20:39.877Z,13.80
2018-01-01T11:21:39.787Z,14.31
2018-01-01T11:22:39.702Z,14.27
2018-01-01T11:23:39.623Z,13.79
2018-01-01T11:24:39.542Z,13.49
2018-01-01T11:25:39.455Z,13.65
2018-01-01T11:26:39.370Z,12.87
2018-01-01T11:27:39.290Z,12.70
2018-01-01T11:28:39.215Z,13.20
2018-01-01T11:29:39.184Z,12.84
2018-01-01T11:30:39.031Z,12.74
2018-01-01T11:31:38.947Z,13.15
2018-01-01T11:32:38.858Z,13.22
2018-01-01T11:33:38.777Z,12.74
2018-01-01T11:34:38.726Z,12.79
2018-01-01T11:35:38.611Z,12.75
2018-01-01T11:36:38.526Z,12.69
2018-01-01T11:37:38.439Z,12.96
2018-01-01T11:38:38.359Z,12.88
2018-01-01T11:39:38.293Z,12.75
2018-01-01T11:40:38.176Z,12.66
2018-01-01T11:41:38.089Z,12.59
2018-01-01T11:42:38.036Z,12.42
2018-01-01T11:43:37.930Z,12.67
2018-01-01T11:44:37.844Z,12.82
2018-01-01T11:45:37.747Z,13.03
2018-01-01T11:46:37.666Z,13.00
2018-01-01T11:47:37.580Z,13.54
2018-01-01T11:48:37.505Z,13.59
2018-01-01T11:49:37.445Z,13.81
2018-01-01T11:50:37.517Z,13.65
2018-01-01T11:51:37.248Z,13.62
2018-01-01T11:52:37.161Z,13.54
2018-01-01T11:53:37.075Z,13.47
2018-01-01T11:54:36.992Z,13.61
2018-01-01T11:55:36.919Z,13.80
2018-01-01T11:56:36.818Z,13.52
2018-01-01T11:57:36.741Z,13.03
2018-01-01T11:58:36.662Z,13.79
2018-01-01T11:59:36.567Z,13.91
2018-01-01T12:00:36.478Z,14.28
2018-01-01T12:01:36.393Z,13.83
2018-01-01T12:02:36.310Z,13.98
2018-01-01T12:03:36.220Z,13.46
2018-01-01T12:04:36.146Z,13.79
2018-01-01T12:05:36.053Z,14.04
2018-01-01T12:06:35.964Z,14.19
2018-01-01T12:07:35.880Z,14.37
2018-01-01T12:08:35.792Z,13.77
2018-01-01T12:09:35.707Z,13.91
2018-01-01T12:10:35.623Z,14.06
2018-01-01T12:11:35.538Z,13.25
2018-01-01T12:12:35.459Z,12.64
2018-01-01T12:13:35.379Z,13.00
2018-01-01T12:14:35.279Z,13.33
2018-01-01T12:15:35.193Z,13.51
2018-01-01T12:16:35.110Z,13.04
2018-01-01T12:17:35.041Z,12.97
2018-01-01T12:18:34.941Z,13.06
2018-01-01T12:19:34.853Z,12.88
2018-01-01T12:20:34.768Z,12.78
2018-01-01T12:21:34.685Z,12.66
2018-01-01T12:22:34.597Z,12.46
2018-01-01T12:23:34.549Z,12.33
2018-01-01T12:24:34.434Z,12.64
2018-01-01T12:25:34.340Z,12.27
2018-01-01T12:26:34.252Z,12.49
2018-01-01T12:27:34.167Z,12.20
2018-01-01T12:28:34.093Z,12.26
2018-01-01T12:29:33.992Z,12.52
2018-01-01T12:30:33.902Z,12.59
2018-01-01T12:31:33.862Z,12.69
2018-01-01T12:32:33.737Z,12.62
2018-01-01T12:33:33.646Z,12.85
2018-01-01T12:34:33.563Z,12.79
2018-01-01T12:35:33.478Z,13.04
2018-01-01T12:36:33.388Z,13.04
2018-01-01T12:37:33.303Z,13.00
2018-01-01T12:38:33.220Z,13.12
2018-01-01T12:39:33.199Z,13.00
2018-01-01T12:40:33.047Z,13.04
2018-01-01T12:41:32.963Z,12.63
2018-01-01T12:42:32.875Z,12.69
2018-01-01T12:43:32.791Z,12.79
2018-01-01T12:44:32.705Z,12.99
2018-01-01T12:45:32.623Z,12.79
2018-01-01T12:46:32.534Z,12.71
2018-01-01T12:47:32.450Z,12.45
2018-01-01T12:48:32.367Z,12.44
2018-01-01T12:49:32.278Z,12.56
2018-01-01T12:50:32.221Z,12.44
2018-01-01T12:51:32.102Z,12.42
2018-01-01T12:52:32.018Z,12.48
2018-01-01T12:53:31.969Z,12.41
2018-01-01T12:54:31.868Z,12.62